This is the latest recevied weather packets stored in our database for station/object VK3MAK-1. If no packets are shown the sender has not sent any weather packets the latest 10 day(s).
| Time | Temp. | Humidity | Pressure | Rain* | Wind** | Luminosity | Snow |
|---|---|---|---|---|---|---|---|
| 1777525203 | 25.56° C | 24% | 1022.3 hPa | 0 mm | 7.15 m/s, 338° | - | - |
| 1777524604 | 25.56° C | 24% | 1022.3 hPa | 0 mm | 7.15 m/s, 338° | - | - |
| 1777524004 | 25.56° C | 24% | 1022.3 hPa | 0 mm | 7.15 m/s, 338° | - | - |
| 1777523403 | 25.56° C | 25% | 1022.4 hPa | 0 mm | 6.71 m/s, 0° | - | - |
| 1777522803 | 25.56° C | 25% | 1022.4 hPa | 0 mm | 6.71 m/s, 0° | - | - |
| 1777522203 | 25.56° C | 25% | 1022.4 hPa | 0 mm | 6.71 m/s, 0° | - | - |
| 1777521603 | 25° C | 28% | 1022.8 hPa | 0 mm | 6.26 m/s, 338° | - | - |
| 1777521004 | 25° C | 28% | 1022.8 hPa | 0 mm | 6.26 m/s, 338° | - | - |
| 1777520404 | 25° C | 28% | 1022.8 hPa | 0 mm | 6.26 m/s, 338° | - | - |
| 1777519803 | 25.56° C | 27% | 1023.2 hPa | 0 mm | 7.15 m/s, 0° | - | - |
| 1777519203 | 25.56° C | 27% | 1023.2 hPa | 0 mm | 7.15 m/s, 0° | - | - |
| 1777518603 | 25.56° C | 27% | 1023.2 hPa | 0 mm | 7.15 m/s, 0° | - | - |
| 1777518003 | 25.56° C | 27% | 1023.7 hPa | 0 mm | 7.6 m/s, 0° | - | - |
| 1777517404 | 25.56° C | 27% | 1023.7 hPa | 0 mm | 7.6 m/s, 0° | - | - |
| 1777516803 | 25.56° C | 27% | 1023.7 hPa | 0 mm | 7.6 m/s, 0° | - | - |
| 1777516203 | 25.56° C | 29% | 1024.1 hPa | 0 mm | 7.15 m/s, 0° | - | - |
| 1777515603 | 25.56° C | 29% | 1024.1 hPa | 0 mm | 7.15 m/s, 0° | - | - |
| 1777515003 | 25.56° C | 29% | 1024.1 hPa | 0 mm | 7.15 m/s, 0° | - | - |
| 1777514403 | 23.89° C | 31% | 1024.3 hPa | 0 mm | 7.15 m/s, 0° | - | - |
| 1777513803 | 23.89° C | 31% | 1024.3 hPa | 0 mm | 7.15 m/s, 0° | - | - |
| 1777513205 | 23.89° C | 31% | 1024.3 hPa | 0 mm | 7.15 m/s, 0° | - | - |
| 1777512604 | 24.44° C | 32% | 1024.6 hPa | 0 mm | 6.71 m/s, 0° | - | - |
| 1777512004 | 24.44° C | 32% | 1024.6 hPa | 0 mm | 6.71 m/s, 0° | - | - |
| 1777511403 | 24.44° C | 32% | 1024.6 hPa | 0 mm | 6.71 m/s, 0° | - | - |
| 1777510803 | 22.22° C | 36% | 1025 hPa | 0 mm | 6.26 m/s, 0° | - | - |
* Rain latest hour (hover to see other rain measurements)
** Current wind speed in m/s (hover to see current wind gust speed)